sensor_id;sensor_type;location;lat;lon;timestamp;P1;durP1;ratioP1;P2;durP2;ratioP2
6406;SDS011;3236;51.022;6.818;2023-08-07T00:02:23;4.72;;;1.92;;
6406;SDS011;3236;51.022;6.818;2023-08-07T00:04:52;19.90;;;3.45;;
6406;SDS011;3236;51.022;6.818;2023-08-07T00:07:19;5.22;;;2.47;;
6406;SDS011;3236;51.022;6.818;2023-08-07T00:09:47;7.55;;;2.33;;
6406;SDS011;3236;51.022;6.818;2023-08-07T00:12:14;5.90;;;2.05;;
6406;SDS011;3236;51.022;6.818;2023-08-07T00:14:41;9.73;;;2.63;;
6406;SDS011;3236;51.022;6.818;2023-08-07T00:17:09;4.40;;;2.25;;
6406;SDS011;3236;51.022;6.818;2023-08-07T00:19:36;7.07;;;1.73;;
6406;SDS011;3236;51.022;6.818;2023-08-07T00:22:05;14.68;;;2.75;;
6406;SDS011;3236;51.022;6.818;2023-08-07T00:24:32;16.25;;;3.58;;
6406;SDS011;3236;51.022;6.818;2023-08-07T00:27:00;11.60;;;2.53;;
6406;SDS011;3236;51.022;6.818;2023-08-07T00:29:29;10.73;;;3.00;;
6406;SDS011;3236;51.022;6.818;2023-08-07T00:31:57;8.35;;;2.30;;
6406;SDS011;3236;51.022;6.818;2023-08-07T00:34:25;10.27;;;2.90;;
6406;SDS011;3236;51.022;6.818;2023-08-07T00:36:58;10.18;;;2.15;;
6406;SDS011;3236;51.022;6.818;2023-08-07T00:39:27;9.65;;;2.90;;
6406;SDS011;3236;51.022;6.818;2023-08-07T00:41:54;10.20;;;2.22;;
6406;SDS011;3236;51.022;6.818;2023-08-07T00:44:22;11.15;;;2.50;;
6406;SDS011;3236;51.022;6.818;2023-08-07T00:46:52;8.73;;;1.90;;
6406;SDS011;3236;51.022;6.818;2023-08-07T00:49:20;9.95;;;2.80;;
6406;SDS011;3236;51.022;6.818;2023-08-07T00:51:48;11.60;;;3.00;;
6406;SDS011;3236;51.022;6.818;2023-08-07T00:54:15;6.25;;;2.13;;
6406;SDS011;3236;51.022;6.818;2023-08-07T00:56:47;8.33;;;2.83;;
6406;SDS011;3236;51.022;6.818;2023-08-07T00:59:23;10.00;;;2.63;;
6406;SDS011;3236;51.022;6.818;2023-08-07T01:01:50;9.90;;;2.38;;
6406;SDS011;3236;51.022;6.818;2023-08-07T01:04:21;4.45;;;2.00;;
6406;SDS011;3236;51.022;6.818;2023-08-07T01:06:48;9.18;;;2.60;;
6406;SDS011;3236;51.022;6.818;2023-08-07T01:09:15;7.10;;;2.60;;
6406;SDS011;3236;51.022;6.818;2023-08-07T01:11:43;4.28;;;1.45;;
6406;SDS011;3236;51.022;6.818;2023-08-07T01:14:19;20.42;;;3.53;;
6406;SDS011;3236;51.022;6.818;2023-08-07T01:16:56;5.85;;;2.20;;
6406;SDS011;3236;51.022;6.818;2023-08-07T01:19:27;11.73;;;2.78;;
6406;SDS011;3236;51.022;6.818;2023-08-07T01:22:06;8.35;;;3.03;;
6406;SDS011;3236;51.022;6.818;2023-08-07T01:24:34;14.10;;;3.53;;
6406;SDS011;3236;51.022;6.818;2023-08-07T01:27:05;9.32;;;3.05;;
6406;SDS011;3236;51.022;6.818;2023-08-07T01:29:36;15.15;;;3.33;;
6406;SDS011;3236;51.022;6.818;2023-08-07T01:32:06;13.93;;;3.25;;
6406;SDS011;3236;51.022;6.818;2023-08-07T01:34:36;13.30;;;3.33;;
6406;SDS011;3236;51.022;6.818;2023-08-07T01:37:08;11.52;;;2.67;;
6406;SDS011;3236;51.022;6.818;2023-08-07T01:39:38;12.00;;;3.50;;
6406;SDS011;3236;51.022;6.818;2023-08-07T01:42:07;8.27;;;3.05;;
6406;SDS011;3236;51.022;6.818;2023-08-07T01:44:36;16.20;;;3.65;;
6406;SDS011;3236;51.022;6.818;2023-08-07T01:47:04;16.67;;;3.42;;
6406;SDS011;3236;51.022;6.818;2023-08-07T01:49:32;15.02;;;3.42;;
6406;SDS011;3236;51.022;6.818;2023-08-07T01:52:04;14.23;;;3.03;;
6406;SDS011;3236;51.022;6.818;2023-08-07T01:54:33;10.50;;;2.83;;
6406;SDS011;3236;51.022;6.818;2023-08-07T01:57:01;15.85;;;3.25;;
6406;SDS011;3236;51.022;6.818;2023-08-07T01:59:28;10.75;;;2.90;;
6406;SDS011;3236;51.022;6.818;2023-08-07T02:01:55;14.50;;;3.47;;
6406;SDS011;3236;51.022;6.818;2023-08-07T02:04:23;14.55;;;2.80;;
6406;SDS011;3236;51.022;6.818;2023-08-07T02:06:50;3.75;;;1.63;;
6406;SDS011;3236;51.022;6.818;2023-08-07T02:09:17;8.88;;;3.47;;
6406;SDS011;3236;51.022;6.818;2023-08-07T02:11:46;9.15;;;2.35;;
6406;SDS011;3236;51.022;6.818;2023-08-07T02:14:13;11.07;;;3.05;;
6406;SDS011;3236;51.022;6.818;2023-08-07T02:16:43;9.85;;;2.70;;
6406;SDS011;3236;51.022;6.818;2023-08-07T02:19:11;8.27;;;3.28;;
6406;SDS011;3236;51.022;6.818;2023-08-07T02:21:38;16.02;;;3.55;;
6406;SDS011;3236;51.022;6.818;2023-08-07T02:24:08;17.20;;;3.97;;
6406;SDS011;3236;51.022;6.818;2023-08-07T02:26:38;19.50;;;3.50;;
6406;SDS011;3236;51.022;6.818;2023-08-07T02:29:06;14.43;;;3.92;;
6406;SDS011;3236;51.022;6.818;2023-08-07T02:31:34;14.18;;;3.25;;
6406;SDS011;3236;51.022;6.818;2023-08-07T02:34:02;13.48;;;3.85;;
6406;SDS011;3236;51.022;6.818;2023-08-07T02:36:31;4.90;;;2.25;;
6406;SDS011;3236;51.022;6.818;2023-08-07T02:38:58;4.00;;;2.33;;
6406;SDS011;3236;51.022;6.818;2023-08-07T02:41:25;9.50;;;3.00;;
6406;SDS011;3236;51.022;6.818;2023-08-07T02:43:53;12.68;;;3.40;;
6406;SDS011;3236;51.022;6.818;2023-08-07T02:46:21;10.10;;;3.15;;
6406;SDS011;3236;51.022;6.818;2023-08-07T02:48:51;13.57;;;2.55;;
6406;SDS011;3236;51.022;6.818;2023-08-07T02:51:19;10.48;;;2.67;;
6406;SDS011;3236;51.022;6.818;2023-08-07T02:53:46;11.98;;;3.47;;
6406;SDS011;3236;51.022;6.818;2023-08-07T02:56:14;9.70;;;3.40;;
6406;SDS011;3236;51.022;6.818;2023-08-07T02:58:41;12.93;;;4.13;;
6406;SDS011;3236;51.022;6.818;2023-08-07T03:01:08;17.58;;;3.35;;
6406;SDS011;3236;51.022;6.818;2023-08-07T03:03:38;9.07;;;3.40;;
6406;SDS011;3236;51.022;6.818;2023-08-07T03:06:05;14.13;;;2.78;;
6406;SDS011;3236;51.022;6.818;2023-08-07T03:08:32;23.52;;;2.72;;
6406;SDS011;3236;51.022;6.818;2023-08-07T03:10:59;7.75;;;2.75;;
6406;SDS011;3236;51.022;6.818;2023-08-07T03:13:26;6.80;;;2.33;;
6406;SDS011;3236;51.022;6.818;2023-08-07T03:16:04;5.80;;;2.72;;
6406;SDS011;3236;51.022;6.818;2023-08-07T03:18:32;8.57;;;2.80;;
6406;SDS011;3236;51.022;6.818;2023-08-07T03:21:01;11.73;;;3.22;;
6406;SDS011;3236;51.022;6.818;2023-08-07T03:23:28;8.85;;;3.08;;
6406;SDS011;3236;51.022;6.818;2023-08-07T03:26:01;15.63;;;3.22;;
6406;SDS011;3236;51.022;6.818;2023-08-07T03:28:29;17.17;;;2.92;;
6406;SDS011;3236;51.022;6.818;2023-08-07T03:30:56;6.28;;;2.35;;
6406;SDS011;3236;51.022;6.818;2023-08-07T03:33:23;14.88;;;3.17;;
6406;SDS011;3236;51.022;6.818;2023-08-07T03:35:50;14.63;;;3.30;;
6406;SDS011;3236;51.022;6.818;2023-08-07T03:38:19;16.80;;;3.65;;
6406;SDS011;3236;51.022;6.818;2023-08-07T03:40:46;9.98;;;3.47;;
6406;SDS011;3236;51.022;6.818;2023-08-07T03:43:14;7.05;;;2.60;;
6406;SDS011;3236;51.022;6.818;2023-08-07T03:45:41;14.77;;;3.95;;
6406;SDS011;3236;51.022;6.818;2023-08-07T03:48:08;12.35;;;3.42;;
6406;SDS011;3236;51.022;6.818;2023-08-07T03:50:35;13.07;;;2.95;;
6406;SDS011;3236;51.022;6.818;2023-08-07T03:53:03;15.60;;;3.75;;
6406;SDS011;3236;51.022;6.818;2023-08-07T03:55:33;14.55;;;3.25;;
6406;SDS011;3236;51.022;6.818;2023-08-07T03:58:00;12.00;;;3.05;;
6406;SDS011;3236;51.022;6.818;2023-08-07T04:00:28;7.78;;;2.92;;
6406;SDS011;3236;51.022;6.818;2023-08-07T04:02:55;6.85;;;2.17;;
6406;SDS011;3236;51.022;6.818;2023-08-07T04:05:22;4.65;;;2.22;;
6406;SDS011;3236;51.022;6.818;2023-08-07T04:07:50;14.18;;;4.00;;
6406;SDS011;3236;51.022;6.818;2023-08-07T04:10:17;21.08;;;3.00;;
6406;SDS011;3236;51.022;6.818;2023-08-07T04:12:46;9.80;;;3.30;;
6406;SDS011;3236;51.022;6.818;2023-08-07T04:15:13;5.72;;;2.15;;
6406;SDS011;3236;51.022;6.818;2023-08-07T04:17:43;9.45;;;2.97;;
6406;SDS011;3236;51.022;6.818;2023-08-07T04:20:10;12.10;;;3.60;;
6406;SDS011;3236;51.022;6.818;2023-08-07T04:22:39;15.38;;;3.85;;
6406;SDS011;3236;51.022;6.818;2023-08-07T04:25:10;10.43;;;3.38;;
6406;SDS011;3236;51.022;6.818;2023-08-07T04:27:37;8.93;;;3.05;;
6406;SDS011;3236;51.022;6.818;2023-08-07T04:30:06;10.38;;;4.88;;
6406;SDS011;3236;51.022;6.818;2023-08-07T04:32:34;8.95;;;2.65;;
6406;SDS011;3236;51.022;6.818;2023-08-07T04:35:03;7.65;;;2.47;;
6406;SDS011;3236;51.022;6.818;2023-08-07T04:37:34;12.07;;;3.80;;
6406;SDS011;3236;51.022;6.818;2023-08-07T04:40:02;8.90;;;3.45;;
6406;SDS011;3236;51.022;6.818;2023-08-07T04:42:31;12.82;;;3.55;;
6406;SDS011;3236;51.022;6.818;2023-08-07T04:44:58;11.98;;;3.45;;
6406;SDS011;3236;51.022;6.818;2023-08-07T04:47:27;6.63;;;2.80;;
6406;SDS011;3236;51.022;6.818;2023-08-07T04:49:54;9.80;;;3.35;;
6406;SDS011;3236;51.022;6.818;2023-08-07T04:52:22;8.82;;;2.92;;
6406;SDS011;3236;51.022;6.818;2023-08-07T04:54:49;9.15;;;2.55;;
6406;SDS011;3236;51.022;6.818;2023-08-07T04:57:16;7.43;;;2.30;;
6406;SDS011;3236;51.022;6.818;2023-08-07T04:59:43;9.38;;;2.38;;
6406;SDS011;3236;51.022;6.818;2023-08-07T05:02:11;12.00;;;2.90;;
6406;SDS011;3236;51.022;6.818;2023-08-07T05:04:39;7.63;;;3.13;;
6406;SDS011;3236;51.022;6.818;2023-08-07T05:07:07;7.45;;;3.20;;
6406;SDS011;3236;51.022;6.818;2023-08-07T05:09:34;5.57;;;2.08;;
6406;SDS011;3236;51.022;6.818;2023-08-07T05:12:02;9.38;;;2.95;;
6406;SDS011;3236;51.022;6.818;2023-08-07T05:14:30;17.02;;;3.42;;
6406;SDS011;3236;51.022;6.818;2023-08-07T05:16:57;11.73;;;2.65;;
6406;SDS011;3236;51.022;6.818;2023-08-07T05:19:24;7.03;;;2.50;;
6406;SDS011;3236;51.022;6.818;2023-08-07T05:21:53;10.05;;;2.20;;
6406;SDS011;3236;51.022;6.818;2023-08-07T05:24:20;8.75;;;2.20;;
6406;SDS011;3236;51.022;6.818;2023-08-07T05:26:47;6.82;;;2.53;;
6406;SDS011;3236;51.022;6.818;2023-08-07T05:29:14;3.85;;;1.90;;
6406;SDS011;3236;51.022;6.818;2023-08-07T05:31:41;5.03;;;2.65;;
6406;SDS011;3236;51.022;6.818;2023-08-07T05:34:11;6.70;;;2.55;;
6406;SDS011;3236;51.022;6.818;2023-08-07T05:36:38;15.32;;;2.60;;
6406;SDS011;3236;51.022;6.818;2023-08-07T05:39:08;9.73;;;2.50;;
6406;SDS011;3236;51.022;6.818;2023-08-07T05:41:35;6.30;;;1.77;;
6406;SDS011;3236;51.022;6.818;2023-08-07T05:44:03;10.75;;;2.80;;
6406;SDS011;3236;51.022;6.818;2023-08-07T05:46:31;10.18;;;2.55;;
6406;SDS011;3236;51.022;6.818;2023-08-07T05:48:58;8.80;;;2.50;;
6406;SDS011;3236;51.022;6.818;2023-08-07T05:51:25;7.70;;;1.92;;
6406;SDS011;3236;51.022;6.818;2023-08-07T05:53:52;5.18;;;2.38;;
6406;SDS011;3236;51.022;6.818;2023-08-07T05:56:21;12.32;;;2.63;;
6406;SDS011;3236;51.022;6.818;2023-08-07T05:58:54;11.98;;;2.72;;
6406;SDS011;3236;51.022;6.818;2023-08-07T06:01:24;9.40;;;2.65;;
6406;SDS011;3236;51.022;6.818;2023-08-07T06:03:55;5.13;;;2.28;;
6406;SDS011;3236;51.022;6.818;2023-08-07T06:06:23;9.32;;;2.60;;
6406;SDS011;3236;51.022;6.818;2023-08-07T06:08:53;6.40;;;1.88;;
6406;SDS011;3236;51.022;6.818;2023-08-07T06:11:22;4.18;;;1.75;;
6406;SDS011;3236;51.022;6.818;2023-08-07T06:13:52;10.30;;;2.13;;
6406;SDS011;3236;51.022;6.818;2023-08-07T06:16:19;3.22;;;1.52;;
6406;SDS011;3236;51.022;6.818;2023-08-07T06:18:48;5.85;;;1.58;;
6406;SDS011;3236;51.022;6.818;2023-08-07T06:21:15;3.95;;;1.65;;
6406;SDS011;3236;51.022;6.818;2023-08-07T06:23:43;9.75;;;2.45;;
6406;SDS011;3236;51.022;6.818;2023-08-07T06:26:10;4.05;;;1.98;;
6406;SDS011;3236;51.022;6.818;2023-08-07T06:28:39;6.40;;;2.55;;
6406;SDS011;3236;51.022;6.818;2023-08-07T06:31:08;9.82;;;2.28;;
6406;SDS011;3236;51.022;6.818;2023-08-07T06:33:36;7.22;;;2.13;;
6406;SDS011;3236;51.022;6.818;2023-08-07T06:36:04;8.73;;;1.70;;
6406;SDS011;3236;51.022;6.818;2023-08-07T06:38:32;9.73;;;3.03;;
6406;SDS011;3236;51.022;6.818;2023-08-07T06:41:00;8.65;;;2.30;;
6406;SDS011;3236;51.022;6.818;2023-08-07T06:43:27;7.50;;;2.50;;
6406;SDS011;3236;51.022;6.818;2023-08-07T06:45:56;8.45;;;2.30;;
6406;SDS011;3236;51.022;6.818;2023-08-07T06:48:23;9.90;;;2.45;;
6406;SDS011;3236;51.022;6.818;2023-08-07T06:50:54;5.47;;;2.70;;
6406;SDS011;3236;51.022;6.818;2023-08-07T06:53:27;7.38;;;2.38;;
6406;SDS011;3236;51.022;6.818;2023-08-07T06:55:58;7.32;;;2.25;;
6406;SDS011;3236;51.022;6.818;2023-08-07T06:58:25;8.75;;;2.58;;
6406;SDS011;3236;51.022;6.818;2023-08-07T07:00:52;10.68;;;2.58;;
6406;SDS011;3236;51.022;6.818;2023-08-07T07:03:21;11.18;;;3.88;;
6406;SDS011;3236;51.022;6.818;2023-08-07T07:05:48;12.60;;;2.75;;
6406;SDS011;3236;51.022;6.818;2023-08-07T07:08:15;6.07;;;2.35;;
6406;SDS011;3236;51.022;6.818;2023-08-07T07:10:43;8.43;;;2.83;;
6406;SDS011;3236;51.022;6.818;2023-08-07T07:13:10;3.47;;;2.25;;
6406;SDS011;3236;51.022;6.818;2023-08-07T07:15:37;6.15;;;2.13;;
6406;SDS011;3236;51.022;6.818;2023-08-07T07:18:07;3.97;;;1.75;;
6406;SDS011;3236;51.022;6.818;2023-08-07T07:20:36;3.15;;;2.10;;
6406;SDS011;3236;51.022;6.818;2023-08-07T07:23:03;7.00;;;2.60;;
6406;SDS011;3236;51.022;6.818;2023-08-07T07:25:30;9.70;;;3.88;;
6406;SDS011;3236;51.022;6.818;2023-08-07T07:27:57;5.25;;;2.90;;
6406;SDS011;3236;51.022;6.818;2023-08-07T07:30:24;10.73;;;3.85;;
6406;SDS011;3236;51.022;6.818;2023-08-07T07:32:52;6.60;;;2.08;;
6406;SDS011;3236;51.022;6.818;2023-08-07T07:35:19;4.50;;;2.03;;
6406;SDS011;3236;51.022;6.818;2023-08-07T07:37:47;10.13;;;3.63;;
6406;SDS011;3236;51.022;6.818;2023-08-07T07:40:14;8.93;;;2.88;;
6406;SDS011;3236;51.022;6.818;2023-08-07T07:42:42;6.72;;;3.17;;
6406;SDS011;3236;51.022;6.818;2023-08-07T07:45:09;5.60;;;2.05;;
6406;SDS011;3236;51.022;6.818;2023-08-07T07:47:36;7.53;;;1.92;;
6406;SDS011;3236;51.022;6.818;2023-08-07T07:50:05;13.38;;;2.92;;
6406;SDS011;3236;51.022;6.818;2023-08-07T07:52:34;2.67;;;1.58;;
6406;SDS011;3236;51.022;6.818;2023-08-07T07:55:02;3.72;;;1.50;;
6406;SDS011;3236;51.022;6.818;2023-08-07T07:57:30;11.13;;;2.70;;
6406;SDS011;3236;51.022;6.818;2023-08-07T07:59:58;6.93;;;2.97;;
6406;SDS011;3236;51.022;6.818;2023-08-07T08:02:26;7.80;;;2.17;;
6406;SDS011;3236;51.022;6.818;2023-08-07T08:04:53;7.47;;;2.15;;
6406;SDS011;3236;51.022;6.818;2023-08-07T08:07:21;6.50;;;2.47;;
6406;SDS011;3236;51.022;6.818;2023-08-07T08:09:48;5.95;;;2.50;;
6406;SDS011;3236;51.022;6.818;2023-08-07T08:12:17;3.25;;;1.58;;
6406;SDS011;3236;51.022;6.818;2023-08-07T08:14:44;19.17;;;3.53;;
6406;SDS011;3236;51.022;6.818;2023-08-07T08:17:14;9.73;;;3.13;;
6406;SDS011;3236;51.022;6.818;2023-08-07T08:19:41;4.75;;;2.10;;
6406;SDS011;3236;51.022;6.818;2023-08-07T08:22:09;13.02;;;3.20;;
6406;SDS011;3236;51.022;6.818;2023-08-07T08:24:36;9.93;;;3.05;;
6406;SDS011;3236;51.022;6.818;2023-08-07T08:27:04;6.68;;;2.30;;
6406;SDS011;3236;51.022;6.818;2023-08-07T08:29:33;9.05;;;2.50;;
6406;SDS011;3236;51.022;6.818;2023-08-07T08:32:00;8.05;;;2.15;;
6406;SDS011;3236;51.022;6.818;2023-08-07T08:34:27;4.70;;;2.25;;
6406;SDS011;3236;51.022;6.818;2023-08-07T08:36:55;9.57;;;2.17;;
6406;SDS011;3236;51.022;6.818;2023-08-07T08:39:22;10.98;;;2.28;;
6406;SDS011;3236;51.022;6.818;2023-08-07T08:41:52;10.98;;;3.03;;
6406;SDS011;3236;51.022;6.818;2023-08-07T08:44:20;8.55;;;2.78;;
6406;SDS011;3236;51.022;6.818;2023-08-07T08:46:51;7.07;;;2.78;;
6406;SDS011;3236;51.022;6.818;2023-08-07T08:49:22;9.80;;;2.35;;
6406;SDS011;3236;51.022;6.818;2023-08-07T08:51:54;10.80;;;2.92;;
6406;SDS011;3236;51.022;6.818;2023-08-07T08:54:21;10.35;;;2.78;;
6406;SDS011;3236;51.022;6.818;2023-08-07T08:56:49;2.10;;;1.45;;
6406;SDS011;3236;51.022;6.818;2023-08-07T08:59:17;12.57;;;4.18;;
6406;SDS011;3236;51.022;6.818;2023-08-07T09:01:44;6.05;;;2.33;;
6406;SDS011;3236;51.022;6.818;2023-08-07T09:04:14;4.22;;;1.73;;
6406;SDS011;3236;51.022;6.818;2023-08-07T09:06:41;9.30;;;2.47;;
6406;SDS011;3236;51.022;6.818;2023-08-07T09:09:09;7.30;;;2.40;;
6406;SDS011;3236;51.022;6.818;2023-08-07T09:11:40;6.27;;;1.87;;
6406;SDS011;3236;51.022;6.818;2023-08-07T09:14:15;7.68;;;1.95;;
6406;SDS011;3236;51.022;6.818;2023-08-07T09:16:43;8.48;;;2.10;;
6406;SDS011;3236;51.022;6.818;2023-08-07T09:19:13;7.70;;;2.40;;
6406;SDS011;3236;51.022;6.818;2023-08-07T09:21:41;9.15;;;2.67;;
6406;SDS011;3236;51.022;6.818;2023-08-07T09:24:08;4.63;;;1.92;;
6406;SDS011;3236;51.022;6.818;2023-08-07T09:26:36;2.85;;;1.55;;
6406;SDS011;3236;51.022;6.818;2023-08-07T09:29:09;8.80;;;2.28;;
6406;SDS011;3236;51.022;6.818;2023-08-07T09:31:36;5.40;;;1.10;;
6406;SDS011;3236;51.022;6.818;2023-08-07T09:34:04;2.88;;;1.52;;
6406;SDS011;3236;51.022;6.818;2023-08-07T09:36:33;6.18;;;1.77;;
6406;SDS011;3236;51.022;6.818;2023-08-07T09:39:00;4.55;;;1.98;;
6406;SDS011;3236;51.022;6.818;2023-08-07T09:41:28;2.85;;;1.52;;
6406;SDS011;3236;51.022;6.818;2023-08-07T09:43:55;2.63;;;0.90;;
6406;SDS011;3236;51.022;6.818;2023-08-07T09:46:23;5.22;;;1.88;;
6406;SDS011;3236;51.022;6.818;2023-08-07T09:48:52;7.50;;;1.52;;
6406;SDS011;3236;51.022;6.818;2023-08-07T09:51:24;5.15;;;1.70;;
6406;SDS011;3236;51.022;6.818;2023-08-07T09:53:53;5.03;;;1.90;;
6406;SDS011;3236;51.022;6.818;2023-08-07T09:56:20;5.32;;;1.45;;
6406;SDS011;3236;51.022;6.818;2023-08-07T09:58:48;9.65;;;1.88;;
6406;SDS011;3236;51.022;6.818;2023-08-07T10:01:15;13.90;;;1.95;;
6406;SDS011;3236;51.022;6.818;2023-08-07T10:03:43;6.63;;;2.10;;
6406;SDS011;3236;51.022;6.818;2023-08-07T10:06:11;5.75;;;2.22;;
6406;SDS011;3236;51.022;6.818;2023-08-07T10:08:39;6.32;;;1.80;;
6406;SDS011;3236;51.022;6.818;2023-08-07T10:11:09;9.00;;;1.90;;
6406;SDS011;3236;51.022;6.818;2023-08-07T10:13:36;9.35;;;1.85;;
6406;SDS011;3236;51.022;6.818;2023-08-07T10:16:04;4.70;;;1.08;;
6406;SDS011;3236;51.022;6.818;2023-08-07T10:18:33;3.72;;;1.20;;
6406;SDS011;3236;51.022;6.818;2023-08-07T10:21:01;7.60;;;2.00;;
6406;SDS011;3236;51.022;6.818;2023-08-07T10:23:30;12.20;;;2.10;;
6406;SDS011;3236;51.022;6.818;2023-08-07T10:26:00;6.95;;;1.50;;
6406;SDS011;3236;51.022;6.818;2023-08-07T10:28:32;4.78;;;1.40;;
6406;SDS011;3236;51.022;6.818;2023-08-07T10:31:03;6.55;;;2.30;;
6406;SDS011;3236;51.022;6.818;2023-08-07T10:33:32;4.55;;;1.35;;
6406;SDS011;3236;51.022;6.818;2023-08-07T10:36:01;3.28;;;1.05;;
6406;SDS011;3236;51.022;6.818;2023-08-07T10:38:35;6.18;;;1.40;;
6406;SDS011;3236;51.022;6.818;2023-08-07T10:41:06;3.25;;;1.38;;
6406;SDS011;3236;51.022;6.818;2023-08-07T10:43:46;2.65;;;1.27;;
6406;SDS011;3236;51.022;6.818;2023-08-07T10:46:14;5.60;;;1.63;;
6406;SDS011;3236;51.022;6.818;2023-08-07T10:48:46;4.88;;;1.58;;
6406;SDS011;3236;51.022;6.818;2023-08-07T10:51:15;4.85;;;1.58;;
6406;SDS011;3236;51.022;6.818;2023-08-07T10:53:44;7.28;;;1.75;;
6406;SDS011;3236;51.022;6.818;2023-08-07T10:56:15;1.90;;;1.25;;
6406;SDS011;3236;51.022;6.818;2023-08-07T10:58:44;5.43;;;1.45;;
6406;SDS011;3236;51.022;6.818;2023-08-07T11:01:18;4.82;;;1.88;;
6406;SDS011;3236;51.022;6.818;2023-08-07T11:04:11;3.15;;;1.05;;
6406;SDS011;3236;51.022;6.818;2023-08-07T11:06:41;3.38;;;0.98;;
6406;SDS011;3236;51.022;6.818;2023-08-07T11:09:09;6.50;;;1.30;;
6406;SDS011;3236;51.022;6.818;2023-08-07T11:11:37;4.00;;;1.45;;
6406;SDS011;3236;51.022;6.818;2023-08-07T11:14:06;7.20;;;1.35;;
6406;SDS011;3236;51.022;6.818;2023-08-07T11:16:34;5.35;;;1.20;;
6406;SDS011;3236;51.022;6.818;2023-08-07T11:19:02;0.68;;;0.65;;
6406;SDS011;3236;51.022;6.818;2023-08-07T11:21:30;2.47;;;1.10;;
6406;SDS011;3236;51.022;6.818;2023-08-07T11:23:58;7.47;;;2.42;;
6406;SDS011;3236;51.022;6.818;2023-08-07T11:26:26;5.05;;;1.30;;
6406;SDS011;3236;51.022;6.818;2023-08-07T11:28:54;7.60;;;2.47;;
6406;SDS011;3236;51.022;6.818;2023-08-07T11:31:26;3.70;;;1.30;;
6406;SDS011;3236;51.022;6.818;2023-08-07T11:36:22;4.47;;;1.65;;
6406;SDS011;3236;51.022;6.818;2023-08-07T11:38:49;4.20;;;1.30;;
6406;SDS011;3236;51.022;6.818;2023-08-07T11:41:17;3.70;;;1.60;;
6406;SDS011;3236;51.022;6.818;2023-08-07T11:43:45;7.82;;;2.20;;
6406;SDS011;3236;51.022;6.818;2023-08-07T11:46:13;5.70;;;1.30;;
6406;SDS011;3236;51.022;6.818;2023-08-07T11:48:43;8.27;;;2.42;;
6406;SDS011;3236;51.022;6.818;2023-08-07T11:51:11;5.47;;;1.80;;
6406;SDS011;3236;51.022;6.818;2023-08-07T11:53:39;5.07;;;1.67;;
6406;SDS011;3236;51.022;6.818;2023-08-07T11:56:08;5.28;;;1.98;;
6406;SDS011;3236;51.022;6.818;2023-08-07T11:58:36;7.88;;;2.58;;
6406;SDS011;3236;51.022;6.818;2023-08-07T12:01:05;3.00;;;1.45;;
6406;SDS011;3236;51.022;6.818;2023-08-07T12:03:34;14.23;;;1.90;;
6406;SDS011;3236;51.022;6.818;2023-08-07T12:06:05;2.45;;;1.30;;
6406;SDS011;3236;51.022;6.818;2023-08-07T12:08:34;2.88;;;1.23;;
6406;SDS011;3236;51.022;6.818;2023-08-07T12:11:03;2.17;;;1.15;;
6406;SDS011;3236;51.022;6.818;2023-08-07T12:13:30;4.72;;;1.40;;
6406;SDS011;3236;51.022;6.818;2023-08-07T12:16:00;4.85;;;1.60;;
6406;SDS011;3236;51.022;6.818;2023-08-07T12:18:27;1.95;;;1.13;;
6406;SDS011;3236;51.022;6.818;2023-08-07T12:20:59;7.35;;;1.73;;
6406;SDS011;3236;51.022;6.818;2023-08-07T12:23:28;5.83;;;1.03;;
6406;SDS011;3236;51.022;6.818;2023-08-07T12:25:55;4.43;;;1.70;;
6406;SDS011;3236;51.022;6.818;2023-08-07T12:28:22;3.88;;;1.73;;
6406;SDS011;3236;51.022;6.818;2023-08-07T12:30:50;4.60;;;2.03;;
6406;SDS011;3236;51.022;6.818;2023-08-07T12:33:18;7.47;;;1.38;;
6406;SDS011;3236;51.022;6.818;2023-08-07T12:35:48;4.22;;;1.77;;
6406;SDS011;3236;51.022;6.818;2023-08-07T12:38:16;4.63;;;1.52;;
6406;SDS011;3236;51.022;6.818;2023-08-07T12:40:46;1.98;;;1.17;;
6406;SDS011;3236;51.022;6.818;2023-08-07T12:43:13;5.80;;;1.65;;
6406;SDS011;3236;51.022;6.818;2023-08-07T12:45:41;6.90;;;2.10;;
6406;SDS011;3236;51.022;6.818;2023-08-07T12:48:08;7.15;;;1.67;;
6406;SDS011;3236;51.022;6.818;2023-08-07T12:50:36;6.50;;;1.50;;
6406;SDS011;3236;51.022;6.818;2023-08-07T12:53:03;3.50;;;1.70;;
6406;SDS011;3236;51.022;6.818;2023-08-07T12:55:31;4.32;;;1.60;;
6406;SDS011;3236;51.022;6.818;2023-08-07T12:57:59;3.63;;;1.85;;
6406;SDS011;3236;51.022;6.818;2023-08-07T13:00:26;3.70;;;1.45;;
6406;SDS011;3236;51.022;6.818;2023-08-07T13:02:54;6.03;;;1.70;;
6406;SDS011;3236;51.022;6.818;2023-08-07T13:05:21;4.47;;;1.30;;
6406;SDS011;3236;51.022;6.818;2023-08-07T13:07:49;2.45;;;2.00;;
6406;SDS011;3236;51.022;6.818;2023-08-07T13:10:19;2.65;;;1.20;;
6406;SDS011;3236;51.022;6.818;2023-08-07T13:12:47;3.78;;;1.30;;
6406;SDS011;3236;51.022;6.818;2023-08-07T13:15:16;4.25;;;1.17;;
6406;SDS011;3236;51.022;6.818;2023-08-07T13:17:44;5.13;;;1.50;;
6406;SDS011;3236;51.022;6.818;2023-08-07T13:20:11;3.90;;;1.45;;
6406;SDS011;3236;51.022;6.818;2023-08-07T13:22:40;7.20;;;1.70;;
6406;SDS011;3236;51.022;6.818;2023-08-07T13:25:08;2.25;;;1.20;;
6406;SDS011;3236;51.022;6.818;2023-08-07T13:27:37;4.80;;;1.50;;
6406;SDS011;3236;51.022;6.818;2023-08-07T13:30:07;2.78;;;1.50;;
6406;SDS011;3236;51.022;6.818;2023-08-07T13:32:36;3.05;;;1.50;;
6406;SDS011;3236;51.022;6.818;2023-08-07T13:35:04;8.77;;;1.75;;
6406;SDS011;3236;51.022;6.818;2023-08-07T13:37:32;2.53;;;1.50;;
6406;SDS011;3236;51.022;6.818;2023-08-07T13:39:59;6.15;;;1.80;;
6406;SDS011;3236;51.022;6.818;2023-08-07T13:42:29;2.97;;;1.48;;
6406;SDS011;3236;51.022;6.818;2023-08-07T13:44:57;8.68;;;1.90;;
6406;SDS011;3236;51.022;6.818;2023-08-07T13:47:24;3.63;;;1.63;;
6406;SDS011;3236;51.022;6.818;2023-08-07T13:49:53;3.10;;;1.35;;
6406;SDS011;3236;51.022;6.818;2023-08-07T13:52:23;5.32;;;1.45;;
6406;SDS011;3236;51.022;6.818;2023-08-07T13:54:53;10.80;;;1.85;;
6406;SDS011;3236;51.022;6.818;2023-08-07T13:57:20;4.78;;;0.98;;
6406;SDS011;3236;51.022;6.818;2023-08-07T13:59:48;4.30;;;1.98;;
6406;SDS011;3236;51.022;6.818;2023-08-07T14:02:15;3.83;;;1.63;;
6406;SDS011;3236;51.022;6.818;2023-08-07T14:04:42;3.88;;;1.73;;
6406;SDS011;3236;51.022;6.818;2023-08-07T14:07:11;4.60;;;1.58;;
6406;SDS011;3236;51.022;6.818;2023-08-07T14:09:39;4.00;;;1.83;;
6406;SDS011;3236;51.022;6.818;2023-08-07T14:12:06;10.70;;;2.00;;
6406;SDS011;3236;51.022;6.818;2023-08-07T14:14:34;5.05;;;1.80;;
6406;SDS011;3236;51.022;6.818;2023-08-07T14:17:01;4.43;;;1.80;;
6406;SDS011;3236;51.022;6.818;2023-08-07T14:19:28;3.75;;;2.45;;
6406;SDS011;3236;51.022;6.818;2023-08-07T14:21:55;6.90;;;2.10;;
6406;SDS011;3236;51.022;6.818;2023-08-07T14:24:24;6.85;;;2.63;;
6406;SDS011;3236;51.022;6.818;2023-08-07T14:26:51;7.53;;;1.73;;
6406;SDS011;3236;51.022;6.818;2023-08-07T14:29:18;6.75;;;1.77;;
6406;SDS011;3236;51.022;6.818;2023-08-07T14:31:46;5.78;;;2.15;;
6406;SDS011;3236;51.022;6.818;2023-08-07T14:34:13;6.28;;;2.00;;
6406;SDS011;3236;51.022;6.818;2023-08-07T14:36:40;8.23;;;2.35;;
6406;SDS011;3236;51.022;6.818;2023-08-07T14:39:07;6.50;;;1.92;;
6406;SDS011;3236;51.022;6.818;2023-08-07T14:41:36;2.83;;;1.52;;
6406;SDS011;3236;51.022;6.818;2023-08-07T14:44:03;4.05;;;1.77;;
6406;SDS011;3236;51.022;6.818;2023-08-07T14:46:30;3.15;;;2.13;;
6406;SDS011;3236;51.022;6.818;2023-08-07T14:48:58;5.95;;;1.63;;
6406;SDS011;3236;51.022;6.818;2023-08-07T14:51:25;3.90;;;2.47;;
6406;SDS011;3236;51.022;6.818;2023-08-07T14:53:52;9.23;;;2.40;;
6406;SDS011;3236;51.022;6.818;2023-08-07T14:56:19;7.85;;;2.28;;
6406;SDS011;3236;51.022;6.818;2023-08-07T14:58:48;2.92;;;1.63;;
6406;SDS011;3236;51.022;6.818;2023-08-07T15:01:16;6.55;;;1.95;;
6406;SDS011;3236;51.022;6.818;2023-08-07T15:03:43;7.43;;;2.08;;
6406;SDS011;3236;51.022;6.818;2023-08-07T15:06:10;8.35;;;2.47;;
6406;SDS011;3236;51.022;6.818;2023-08-07T15:08:37;4.38;;;1.90;;
6406;SDS011;3236;51.022;6.818;2023-08-07T15:11:04;5.30;;;2.22;;
6406;SDS011;3236;51.022;6.818;2023-08-07T15:13:31;7.85;;;2.10;;
6406;SDS011;3236;51.022;6.818;2023-08-07T15:16:00;6.40;;;2.90;;
6406;SDS011;3236;51.022;6.818;2023-08-07T15:18:28;7.30;;;2.30;;
6406;SDS011;3236;51.022;6.818;2023-08-07T15:20:55;5.95;;;1.90;;
6406;SDS011;3236;51.022;6.818;2023-08-07T15:23:23;7.07;;;2.15;;